Lexington, KY

12:16 PM EST on March 01, 2015 (GMT -0500)
Blue Grass | Change Station
CLOSE
Current Station
Airport
Location: Lexington,
Elevation: 988 ft
Nearby Weather Stations

Elev 988 ft 38.04 °N, 84.61 °W | Updated 3 minutes ago

Rain
Rain
39 °F
Feels Like 31 °F
N
14
Wind Variable Wind from SSW

Today
High -- | Low -- °F
--% Chance of Precip.
Yesterday
High -- | Low -- °F
Precip. -- in
7:09 AM 6:31 PM
Waxing Gibbous, 86% visible
Pressure 30.34 in
Visibility 7.0 miles
Clouds Mostly Cloudy 1700 ft
Mostly Cloudy 5000 ft
Overcast 6000 ft
Windchill 31 °F
Dew Point 37 °F
Humidity 93%
Rainfall 0.21 in
Snow Depth Not available.
UV 2 out of 12
Pollen .60 out of 12
Air Quality Not available.
Flu Activity Not available.
SPECI KLEX 011713Z 20012KT 7SM -RA BKN017 BKN050 OVC060 04/03 A3034 RMK AO2 P0000 T00390028

More Conditions Fewer Conditions

Pressure 30.34 in
Visibility 7.0 miles
Clouds Mostly Cloudy 1700 ft
Mostly Cloudy 5000 ft
Overcast 6000 ft
Windchill 31 °F
Dew Point 37 °F
Humidity 93%
Rainfall 0.21 in
Snow Depth Not available.
UV 2 out of 12
Pollen .60 out of 12
Air Quality Not available.
Flu Activity Not available.
SPECI KLEX 011713Z 20012KT 7SM -RA BKN017 BKN050 OVC060 04/03 A3034 RMK AO2 P0000 T00390028

More Conditions Fewer Conditions

10-Day Weather Forecast

Almanac

Astronomy

Mar. 01, 2015 Rise Set
Actual Time
Civil Twilight
Nautical Twilight
Astronomical Twilight
Moon
Length of Visible Light
Length of Day
Tomorrow will be .
, % of the Moon is Illuminated

Today's Extremes

State Highs State Lows

Community

WunderPhotos

Upload Photos

1,801,470 photos uploaded!

WunderBlogs® & News

Nearby

Air Quality

  Air Quality AQ Index Pollutant
Not available.

Snow Depth

Station Depth Elevation

Earthquake Activity

City Distance Mag. Time & Date
Minimum magnitude displayed is 2.5.

Coastal Water Temperatures

Place Temperature

Nearby Weather Stations